sensor_id;sensor_type;location;lat;lon;timestamp;pressure;altitude;pressure_sealevel;temperature;humidity
71194;BME280;58903;47.210;8.618;2022-10-29T00:01:12;95113.97;;;25.66;46.81
71194;BME280;58903;47.210;8.618;2022-10-29T00:04:04;95111.97;;;25.66;47.27
71194;BME280;58903;47.210;8.618;2022-10-29T00:06:39;95117.47;;;25.66;46.82
71194;BME280;58903;47.210;8.618;2022-10-29T00:12:15;95111.97;;;25.66;46.45
71194;BME280;58903;47.210;8.618;2022-10-29T00:14:41;95123.00;;;25.66;46.94
71194;BME280;58903;47.210;8.618;2022-10-29T00:17:18;95135.25;;;25.65;46.83
71194;BME280;58903;47.210;8.618;2022-10-29T00:19:54;95139.72;;;25.63;46.97
71194;BME280;58903;47.210;8.618;2022-10-29T00:22:51;95138.00;;;25.65;47.27
71194;BME280;58903;47.210;8.618;2022-10-29T00:25:17;95131.25;;;25.66;47.29
71194;BME280;58903;47.210;8.618;2022-10-29T00:27:43;95124.97;;;25.66;46.54
71194;BME280;58903;47.210;8.618;2022-10-29T00:30:40;95122.72;;;25.64;47.46
71194;BME280;58903;47.210;8.618;2022-10-29T00:33:15;95121.97;;;25.64;47.11
71194;BME280;58903;47.210;8.618;2022-10-29T00:35:57;95114.19;;;25.62;47.28
71194;BME280;58903;47.210;8.618;2022-10-29T00:38:23;95121.22;;;25.63;47.44
71194;BME280;58903;47.210;8.618;2022-10-29T00:40:57;95115.69;;;25.63;46.68
71194;BME280;58903;47.210;8.618;2022-10-29T00:43:40;95115.69;;;25.63;47.44
71194;BME280;58903;47.210;8.618;2022-10-29T00:46:11;95112.69;;;25.61;47.39
71194;BME280;58903;47.210;8.618;2022-10-29T00:48:43;95123.72;;;25.61;47.13
71194;BME280;58903;47.210;8.618;2022-10-29T00:51:15;95112.69;;;25.61;46.94
71194;BME280;58903;47.210;8.618;2022-10-29T00:53:50;95102.69;;;25.64;47.03
71194;BME280;58903;47.210;8.618;2022-10-29T00:56:24;95102.69;;;25.64;46.86
71194;BME280;58903;47.210;8.618;2022-10-29T00:58:53;95102.44;;;25.62;47.05
71194;BME280;58903;47.210;8.618;2022-10-29T01:01:21;95103.16;;;25.62;47.30
71194;BME280;58903;47.210;8.618;2022-10-29T01:03:48;95106.91;;;25.59;47.03
71194;BME280;58903;47.210;8.618;2022-10-29T01:06:24;95118.97;;;25.62;46.80
71194;BME280;58903;47.210;8.618;2022-10-29T01:08:53;95112.69;;;25.61;46.48
71194;BME280;58903;47.210;8.618;2022-10-29T01:23:31;95108.91;;;25.59;46.55
71194;BME280;58903;47.210;8.618;2022-10-29T01:29:17;95094.38;;;25.58;47.30
71194;BME280;58903;47.210;8.618;2022-10-29T01:32:11;95097.13;;;25.58;47.38
71194;BME280;58903;47.210;8.618;2022-10-29T01:49:44;95084.63;;;25.57;47.30
71194;BME280;58903;47.210;8.618;2022-10-29T01:52:27;95079.09;;;25.57;47.39
71194;BME280;58903;47.210;8.618;2022-10-29T01:54:57;95077.59;;;25.56;46.84
71194;BME280;58903;47.210;8.618;2022-10-29T02:07:28;95077.59;;;25.56;46.86
71194;BME280;58903;47.210;8.618;2022-10-29T02:13:12;95088.34;;;25.54;46.42
71194;BME280;58903;47.210;8.618;2022-10-29T02:15:47;95085.84;;;25.56;46.83
71194;BME280;58903;47.210;8.618;2022-10-29T02:18:16;95087.84;;;25.56;46.33
71194;BME280;58903;47.210;8.618;2022-10-29T02:20:53;95089.38;;;25.57;46.35
71194;BME280;58903;47.210;8.618;2022-10-29T02:23:56;95082.09;;;25.54;46.48
71194;BME280;58903;47.210;8.618;2022-10-29T02:26:23;95077.34;;;25.54;47.02
71194;BME280;58903;47.210;8.618;2022-10-29T02:28:49;95074.06;;;25.50;47.44
71194;BME280;58903;47.210;8.618;2022-10-29T02:31:17;95075.59;;;25.51;46.95
71194;BME280;58903;47.210;8.618;2022-10-29T02:33:43;95066.56;;;25.51;47.36
71194;BME280;58903;47.210;8.618;2022-10-29T02:36:18;95068.81;;;25.52;47.10
71194;BME280;58903;47.210;8.618;2022-10-29T02:38:44;95065.81;;;25.50;46.83
71194;BME280;58903;47.210;8.618;2022-10-29T02:41:18;95065.03;;;25.50;46.51
71194;BME280;58903;47.210;8.618;2022-10-29T02:43:47;95063.31;;;25.52;46.97
71194;BME280;58903;47.210;8.618;2022-10-29T02:46:19;95068.56;;;25.50;46.73
71194;BME280;58903;47.210;8.618;2022-10-29T02:48:48;95060.03;;;25.48;46.88
71194;BME280;58903;47.210;8.618;2022-10-29T02:51:26;95060.28;;;25.50;47.30
71194;BME280;58903;47.210;8.618;2022-10-29T02:53:53;95049.28;;;25.50;47.27
71194;BME280;58903;47.210;8.618;2022-10-29T02:56:21;95050.03;;;25.51;46.52
71194;BME280;58903;47.210;8.618;2022-10-29T02:58:49;95042.53;;;25.51;46.53
71194;BME280;58903;47.210;8.618;2022-10-29T03:01:21;95033.97;;;25.49;46.56
71194;BME280;58903;47.210;8.618;2022-10-29T03:03:57;95033.25;;;25.49;46.51
71194;BME280;58903;47.210;8.618;2022-10-29T03:06:23;95036.00;;;25.49;47.02
71194;BME280;58903;47.210;8.618;2022-10-29T03:08:53;95035.25;;;25.48;46.43
71194;BME280;58903;47.210;8.618;2022-10-29T03:11:28;95034.50;;;25.48;46.40
71194;BME280;58903;47.210;8.618;2022-10-29T03:14:06;95037.25;;;25.48;47.15
71194;BME280;58903;47.210;8.618;2022-10-29T03:16:32;95040.00;;;25.48;47.03
71194;BME280;58903;47.210;8.618;2022-10-29T03:19:01;95035.25;;;25.48;46.46
71194;BME280;58903;47.210;8.618;2022-10-29T03:21:29;95033.97;;;25.49;46.94
71194;BME280;58903;47.210;8.618;2022-10-29T03:23:55;95042.25;;;25.49;46.51
71194;BME280;58903;47.210;8.618;2022-10-29T03:26:21;95036.75;;;25.49;46.86
71194;BME280;58903;47.210;8.618;2022-10-29T03:28:49;95038.75;;;25.49;47.16
71194;BME280;58903;47.210;8.618;2022-10-29T03:31:25;95033.97;;;25.49;46.95
71194;BME280;58903;47.210;8.618;2022-10-29T03:33:55;95029.22;;;25.50;46.05
71194;BME280;58903;47.210;8.618;2022-10-29T03:36:47;95034.75;;;25.50;47.29
71194;BME280;58903;47.210;8.618;2022-10-29T03:39:20;95033.97;;;25.49;46.51
71194;BME280;58903;47.210;8.618;2022-10-29T03:41:58;95045.00;;;25.49;46.49
71194;BME280;58903;47.210;8.618;2022-10-29T03:44:36;95037.25;;;25.48;46.54
71194;BME280;58903;47.210;8.618;2022-10-29T03:47:20;95036.47;;;25.47;46.62
71194;BME280;58903;47.210;8.618;2022-10-29T03:49:58;95032.25;;;25.46;46.95
71194;BME280;58903;47.210;8.618;2022-10-29T03:52:39;95038.50;;;25.47;46.41
71194;BME280;58903;47.210;8.618;2022-10-29T03:55:07;95032.25;;;25.46;47.08
71194;BME280;58903;47.210;8.618;2022-10-29T03:57:42;95033.00;;;25.47;46.56
71194;BME280;58903;47.210;8.618;2022-10-29T04:00:28;95023.22;;;25.46;46.63
71194;BME280;58903;47.210;8.618;2022-10-29T04:02:54;95035.00;;;25.46;46.38
71194;BME280;58903;47.210;8.618;2022-10-29T04:05:29;95026.72;;;25.46;47.16
71194;BME280;58903;47.210;8.618;2022-10-29T04:07:55;95027.22;;;25.45;46.88
71194;BME280;58903;47.210;8.618;2022-10-29T04:10:49;95029.22;;;25.44;46.33
71194;BME280;58903;47.210;8.618;2022-10-29T04:13:36;95028.72;;;25.46;47.25
71194;BME280;58903;47.210;8.618;2022-10-29T04:16:13;95028.47;;;25.43;46.47
71194;BME280;58903;47.210;8.618;2022-10-29T04:18:41;95027.22;;;25.45;46.48
71194;BME280;58903;47.210;8.618;2022-10-29T04:21:11;95028.72;;;25.46;46.69
71194;BME280;58903;47.210;8.618;2022-10-29T04:23:39;95029.97;;;25.45;47.09
71194;BME280;58903;47.210;8.618;2022-10-29T04:26:05;95030.72;;;25.45;46.83
71194;BME280;58903;47.210;8.618;2022-10-29T04:28:31;95024.94;;;25.43;47.00
71194;BME280;58903;47.210;8.618;2022-10-29T04:31:33;95034.72;;;25.44;47.30
71194;BME280;58903;47.210;8.618;2022-10-29T04:34:16;95026.94;;;25.42;46.46
71194;BME280;58903;47.210;8.618;2022-10-29T04:36:53;95027.41;;;25.41;47.16
71194;BME280;58903;47.210;8.618;2022-10-29T04:39:29;95024.66;;;25.41;46.83
71194;BME280;58903;47.210;8.618;2022-10-29T04:45:15;95027.41;;;25.41;46.68
71194;BME280;58903;47.210;8.618;2022-10-29T04:47:58;95030.69;;;25.39;46.78
71194;BME280;58903;47.210;8.618;2022-10-29T04:50:24;95026.22;;;25.42;47.18
71194;BME280;58903;47.210;8.618;2022-10-29T04:53:05;95014.91;;;25.40;46.93
71194;BME280;58903;47.210;8.618;2022-10-29T04:55:35;95023.91;;;25.40;46.93
71194;BME280;58903;47.210;8.618;2022-10-29T04:58:18;95019.91;;;25.41;46.95
71194;BME280;58903;47.210;8.618;2022-10-29T05:01:08;95024.94;;;25.43;47.19
71194;BME280;58903;47.210;8.618;2022-10-29T05:03:53;95028.97;;;25.42;47.07
71194;BME280;58903;47.210;8.618;2022-10-29T05:06:22;95015.66;;;25.40;46.93
71194;BME280;58903;47.210;8.618;2022-10-29T05:09:07;95021.91;;;25.41;46.57
71194;BME280;58903;47.210;8.618;2022-10-29T05:11:35;95020.91;;;25.38;46.62
71194;BME280;58903;47.210;8.618;2022-10-29T05:14:19;95013.91;;;25.37;46.87
71194;BME280;58903;47.210;8.618;2022-10-29T05:16:57;95022.91;;;25.38;46.98
71194;BME280;58903;47.210;8.618;2022-10-29T05:19:28;95019.66;;;25.39;46.63
71194;BME280;58903;47.210;8.618;2022-10-29T05:21:55;95020.41;;;25.40;46.79
71194;BME280;58903;47.210;8.618;2022-10-29T05:24:23;95018.91;;;25.39;46.83
71194;BME280;58903;47.210;8.618;2022-10-29T05:26:51;95019.66;;;25.39;46.70
71194;BME280;58903;47.210;8.618;2022-10-29T05:29:17;95018.13;;;25.38;47.14
71194;BME280;58903;47.210;8.618;2022-10-29T05:31:47;95018.13;;;25.38;47.04
71194;BME280;58903;47.210;8.618;2022-10-29T05:34:22;95012.38;;;25.36;46.80
71194;BME280;58903;47.210;8.618;2022-10-29T05:36:50;95011.16;;;25.37;46.26
71194;BME280;58903;47.210;8.618;2022-10-29T05:39:22;95008.88;;;25.36;46.52
71194;BME280;58903;47.210;8.618;2022-10-29T05:41:49;95012.13;;;25.34;46.53
71194;BME280;58903;47.210;8.618;2022-10-29T05:44:15;95019.38;;;25.32;47.28
71194;BME280;58903;47.210;8.618;2022-10-29T05:46:50;95016.34;;;25.30;46.98
71194;BME280;58903;47.210;8.618;2022-10-29T05:49:16;95009.63;;;25.31;47.26
71194;BME280;58903;47.210;8.618;2022-10-29T05:51:45;95010.84;;;25.30;47.03
71194;BME280;58903;47.210;8.618;2022-10-29T05:54:30;95010.38;;;25.31;46.83
71194;BME280;58903;47.210;8.618;2022-10-29T05:57:08;95008.34;;;25.32;46.92
71194;BME280;58903;47.210;8.618;2022-10-29T05:59:33;95004.09;;;25.31;46.73
71194;BME280;58903;47.210;8.618;2022-10-29T06:02:08;95000.59;;;25.30;46.22
71194;BME280;58903;47.210;8.618;2022-10-29T06:05:03;95004.59;;;25.29;46.04
71194;BME280;58903;47.210;8.618;2022-10-29T06:07:56;95006.09;;;25.30;46.69
71194;BME280;58903;47.210;8.618;2022-10-29T06:10:35;95007.63;;;25.31;46.80
71194;BME280;58903;47.210;8.618;2022-10-29T06:13:15;95009.88;;;25.33;46.58
71194;BME280;58903;47.210;8.618;2022-10-29T06:15:44;95014.63;;;25.32;46.69
71194;BME280;58903;47.210;8.618;2022-10-29T06:18:23;95003.84;;;25.29;46.80
71194;BME280;58903;47.210;8.618;2022-10-29T06:20:59;95010.31;;;25.26;47.39
71194;BME280;58903;47.210;8.618;2022-10-29T06:24:02;95008.09;;;25.24;46.23
71194;BME280;58903;47.210;8.618;2022-10-29T06:26:31;95010.56;;;25.22;46.53
71194;BME280;58903;47.210;8.618;2022-10-29T06:29:00;95011.56;;;25.19;46.36
71194;BME280;58903;47.210;8.618;2022-10-29T06:31:28;95006.28;;;25.16;47.14
71194;BME280;58903;47.210;8.618;2022-10-29T06:34:28;95014.81;;;25.18;47.36
71194;BME280;58903;47.210;8.618;2022-10-29T06:37:22;95011.56;;;25.19;47.33
71194;BME280;58903;47.210;8.618;2022-10-29T06:40:00;95016.28;;;25.19;46.81
71194;BME280;58903;47.210;8.618;2022-10-29T06:42:25;95014.81;;;25.18;46.42
71194;BME280;58903;47.210;8.618;2022-10-29T06:44:51;95018.78;;;25.17;46.63
71194;BME280;58903;47.210;8.618;2022-10-29T06:47:17;95013.28;;;25.17;46.86
71194;BME280;58903;47.210;8.618;2022-10-29T06:50:00;95015.31;;;25.22;47.06
71194;BME280;58903;47.210;8.618;2022-10-29T06:52:26;95016.09;;;25.22;47.08
71194;BME280;58903;47.210;8.618;2022-10-29T06:55:02;95018.84;;;25.22;46.55
71194;BME280;58903;47.210;8.618;2022-10-29T06:57:28;95008.56;;;25.23;46.97
71194;BME280;58903;47.210;8.618;2022-10-29T07:00:30;95015.84;;;25.26;47.01
71194;BME280;58903;47.210;8.618;2022-10-29T07:03:16;95024.59;;;25.24;46.07
71194;BME280;58903;47.210;8.618;2022-10-29T07:06:01;95027.59;;;25.26;46.52
71194;BME280;58903;47.210;8.618;2022-10-29T07:08:29;95026.84;;;25.26;46.59
71194;BME280;58903;47.210;8.618;2022-10-29T07:11:08;95036.13;;;25.28;46.67
71194;BME280;58903;47.210;8.618;2022-10-29T07:13:44;95029.09;;;25.27;46.39
71194;BME280;58903;47.210;8.618;2022-10-29T07:16:30;95025.63;;;25.27;46.46
71194;BME280;58903;47.210;8.618;2022-10-29T07:18:57;95025.34;;;25.25;46.52
71194;BME280;58903;47.210;8.618;2022-10-29T07:21:49;95013.34;;;25.28;46.78
71194;BME280;58903;47.210;8.618;2022-10-29T07:24:30;95028.38;;;25.27;46.87
71194;BME280;58903;47.210;8.618;2022-10-29T07:26:56;95026.84;;;25.26;46.74
71194;BME280;58903;47.210;8.618;2022-10-29T07:29:26;95038.63;;;25.26;46.19
71194;BME280;58903;47.210;8.618;2022-10-29T07:31:54;95033.13;;;25.26;46.31
71194;BME280;58903;47.210;8.618;2022-10-29T07:34:22;95026.09;;;25.25;46.72
71194;BME280;58903;47.210;8.618;2022-10-29T07:37:20;95018.09;;;25.27;47.13
71194;BME280;58903;47.210;8.618;2022-10-29T07:39:47;95024.59;;;25.24;46.06
71194;BME280;58903;47.210;8.618;2022-10-29T07:42:22;95027.81;;;25.23;46.53
71194;BME280;58903;47.210;8.618;2022-10-29T07:45:17;95030.88;;;25.25;47.16
71194;BME280;58903;47.210;8.618;2022-10-29T07:47:44;95031.34;;;25.23;46.10
71194;BME280;58903;47.210;8.618;2022-10-29T07:50:13;95038.09;;;25.22;46.99
71194;BME280;58903;47.210;8.618;2022-10-29T07:52:50;95029.09;;;25.22;46.95
71194;BME280;58903;47.210;8.618;2022-10-29T07:55:17;95033.34;;;25.23;47.01
71194;BME280;58903;47.210;8.618;2022-10-29T07:58:06;95033.34;;;25.23;47.06
71194;BME280;58903;47.210;8.618;2022-10-29T08:00:41;95034.09;;;25.23;46.88
71194;BME280;58903;47.210;8.618;2022-10-29T08:03:16;95035.63;;;25.24;47.10
71194;BME280;58903;47.210;8.618;2022-10-29T08:05:42;95034.84;;;25.24;47.13
71194;BME280;58903;47.210;8.618;2022-10-29T08:08:23;95026.59;;;25.24;46.96
71194;BME280;58903;47.210;8.618;2022-10-29T08:10:50;95029.34;;;25.24;46.66
71194;BME280;58903;47.210;8.618;2022-10-29T08:13:18;95031.59;;;25.25;47.05
71194;BME280;58903;47.210;8.618;2022-10-29T08:15:46;95036.38;;;25.25;46.76
71194;BME280;58903;47.210;8.618;2022-10-29T08:18:16;95033.63;;;25.25;46.48
71194;BME280;58903;47.210;8.618;2022-10-29T08:20:43;95032.09;;;25.24;46.58
71194;BME280;58903;47.210;8.618;2022-10-29T08:23:13;95032.09;;;25.24;46.92
71194;BME280;58903;47.210;8.618;2022-10-29T08:25:41;95023.84;;;25.24;46.46
71194;BME280;58903;47.210;8.618;2022-10-29T08:28:12;95024.34;;;25.22;46.86
71194;BME280;58903;47.210;8.618;2022-10-29T08:30:41;95030.88;;;25.25;46.71
71194;BME280;58903;47.210;8.618;2022-10-29T08:33:10;95031.59;;;25.25;46.79
71194;BME280;58903;47.210;8.618;2022-10-29T08:35:39;95023.34;;;25.25;47.03
71194;BME280;58903;47.210;8.618;2022-10-29T08:38:06;95026.84;;;25.26;46.64
71194;BME280;58903;47.210;8.618;2022-10-29T08:43:37;95022.59;;;25.25;46.39
71194;BME280;58903;47.210;8.618;2022-10-29T08:46:18;95018.09;;;25.27;47.13
71194;BME280;58903;47.210;8.618;2022-10-29T08:49:09;95025.63;;;25.27;46.42
71194;BME280;58903;47.210;8.618;2022-10-29T08:51:41;95029.09;;;25.27;47.02
71194;BME280;58903;47.210;8.618;2022-10-29T08:54:13;95023.59;;;25.27;46.73
71194;BME280;58903;47.210;8.618;2022-10-29T08:56:49;95029.09;;;25.27;47.23
71194;BME280;58903;47.210;8.618;2022-10-29T08:59:22;95025.88;;;25.29;46.68
71194;BME280;58903;47.210;8.618;2022-10-29T09:02:02;95033.13;;;25.32;46.39
71194;BME280;58903;47.210;8.618;2022-10-29T09:04:37;95028.88;;;25.31;47.20
71194;BME280;58903;47.210;8.618;2022-10-29T09:07:53;95027.38;;;25.30;47.30
71194;BME280;58903;47.210;8.618;2022-10-29T09:10:53;95030.88;;;25.30;46.42
71194;BME280;58903;47.210;8.618;2022-10-29T09:13:40;95027.38;;;25.30;46.38
71194;BME280;58903;47.210;8.618;2022-10-29T09:27:59;95023.63;;;25.33;46.74
71194;BME280;58903;47.210;8.618;2022-10-29T09:30:42;95024.88;;;25.32;46.66
71194;BME280;58903;47.210;8.618;2022-10-29T09:33:18;95021.66;;;25.33;46.43
71194;BME280;58903;47.210;8.618;2022-10-29T09:35:58;95020.38;;;25.34;46.97
71194;BME280;58903;47.210;8.618;2022-10-29T09:38:44;95018.13;;;25.33;46.43
71194;BME280;58903;47.210;8.618;2022-10-29T09:41:14;95011.84;;;25.27;46.65
71194;BME280;58903;47.210;8.618;2022-10-29T09:53:01;95015.13;;;25.31;46.53
71194;BME280;58903;47.210;8.618;2022-10-29T09:55:54;95018.34;;;25.29;48.10
71194;BME280;58903;47.210;8.618;2022-10-29T09:58:29;95016.09;;;25.28;47.95
71194;BME280;58903;47.210;8.618;2022-10-29T10:01:02;95007.34;;;25.29;48.28
71194;BME280;58903;47.210;8.618;2022-10-29T10:04:09;95012.88;;;25.35;47.28
71194;BME280;58903;47.210;8.618;2022-10-29T10:07:08;95007.13;;;25.38;47.60
71194;BME280;58903;47.210;8.618;2022-10-29T10:09:56;95001.63;;;25.38;47.30
71194;BME280;58903;47.210;8.618;2022-10-29T10:12:27;95000.88;;;25.38;47.57
71194;BME280;58903;47.210;8.618;2022-10-29T10:18:04;95008.13;;;25.41;47.09
71194;BME280;58903;47.210;8.618;2022-10-29T10:20:40;95006.41;;;25.38;46.92
71194;BME280;58903;47.210;8.618;2022-10-29T10:23:46;95001.88;;;25.40;46.60
71194;BME280;58903;47.210;8.618;2022-10-29T10:26:39;95002.16;;;25.42;46.53
71194;BME280;58903;47.210;8.618;2022-10-29T10:29:22;94999.41;;;25.42;46.93
71194;BME280;58903;47.210;8.618;2022-10-29T10:32:09;94990.59;;;25.38;47.61
71194;BME280;58903;47.210;8.618;2022-10-29T10:34:37;94993.09;;;25.36;47.69
71194;BME280;58903;47.210;8.618;2022-10-29T10:39:44;94986.63;;;25.39;47.39
71194;BME280;58903;47.210;8.618;2022-10-29T10:42:32;94979.59;;;25.38;47.77
71194;BME280;58903;47.210;8.618;2022-10-29T10:45:38;94983.88;;;25.39;46.94
71194;BME280;58903;47.210;8.618;2022-10-29T10:48:23;94985.84;;;25.39;47.61
71194;BME280;58903;47.210;8.618;2022-10-29T10:51:25;94977.84;;;25.41;47.58
71194;BME280;58903;47.210;8.618;2022-10-29T10:54:26;94969.13;;;25.42;47.00
71194;BME280;58903;47.210;8.618;2022-10-29T10:57:02;94971.38;;;25.44;47.75
71194;BME280;58903;47.210;8.618;2022-10-29T11:02:38;94968.13;;;25.46;47.07
71194;BME280;58903;47.210;8.618;2022-10-29T11:05:19;94959.38;;;25.47;47.27
71194;BME280;58903;47.210;8.618;2022-10-29T11:10:51;94954.63;;;25.42;47.07
71194;BME280;58903;47.210;8.618;2022-10-29T11:13:33;94949.34;;;25.44;47.70
71194;BME280;58903;47.210;8.618;2022-10-29T11:16:11;94948.59;;;25.43;48.00
71194;BME280;58903;47.210;8.618;2022-10-29T11:21:54;94935.53;;;25.38;48.12
71194;BME280;58903;47.210;8.618;2022-10-29T11:30:17;94933.03;;;25.40;47.98
71194;BME280;58903;47.210;8.618;2022-10-29T11:36:23;94928.09;;;25.45;47.58
71194;BME280;58903;47.210;8.618;2022-10-29T11:39:09;94926.31;;;25.47;47.79
71194;BME280;58903;47.210;8.618;2022-10-29T11:44:57;94914.06;;;25.48;48.03
71194;BME280;58903;47.210;8.618;2022-10-29T11:50:21;94912.06;;;25.54;47.36
71194;BME280;58903;47.210;8.618;2022-10-29T12:13:50;94886.28;;;25.63;45.79
71194;BME280;58903;47.210;8.618;2022-10-29T12:22:50;94877.78;;;25.66;45.37
71194;BME280;58903;47.210;8.618;2022-10-29T12:28:37;94880.81;;;25.68;44.78
71194;BME280;58903;47.210;8.618;2022-10-29T12:31:21;94874.28;;;25.71;45.08
71194;BME280;58903;47.210;8.618;2022-10-29T12:42:05;94864.78;;;25.72;44.55
71194;BME280;58903;47.210;8.618;2022-10-29T12:54:21;94861.75;;;25.76;45.09
71194;BME280;58903;47.210;8.618;2022-10-29T12:56:51;94858.50;;;25.77;43.72
71194;BME280;58903;47.210;8.618;2022-10-29T12:59:30;94859.00;;;25.81;43.04
71194;BME280;58903;47.210;8.618;2022-10-29T13:05:18;94852.72;;;25.86;43.13
71194;BME280;58903;47.210;8.618;2022-10-29T13:13:52;94851.75;;;25.89;43.23
71194;BME280;58903;47.210;8.618;2022-10-29T13:16:32;94850.22;;;25.88;43.87
71194;BME280;58903;47.210;8.618;2022-10-29T13:24:44;94852.22;;;25.93;43.93
71194;BME280;58903;47.210;8.618;2022-10-29T13:30:16;94844.72;;;25.94;43.96
71194;BME280;58903;47.210;8.618;2022-10-29T13:32:45;94848.00;;;25.92;44.82
71194;BME280;58903;47.210;8.618;2022-10-29T13:37:53;94851.97;;;25.97;44.87
71194;BME280;58903;47.210;8.618;2022-10-29T13:43:06;94849.97;;;25.97;45.00
71194;BME280;58903;47.210;8.618;2022-10-29T13:45:40;94841.22;;;25.99;44.42
71194;BME280;58903;47.210;8.618;2022-10-29T13:48:24;94837.44;;;26.02;44.52
71194;BME280;58903;47.210;8.618;2022-10-29T13:50:55;94840.44;;;26.04;45.06
71194;BME280;58903;47.210;8.618;2022-10-29T13:53:31;94834.44;;;26.05;44.84
71194;BME280;58903;47.210;8.618;2022-10-29T13:56:21;94831.94;;;26.07;44.27
71194;BME280;58903;47.210;8.618;2022-10-29T13:58:54;94824.66;;;26.04;44.42
71194;BME280;58903;47.210;8.618;2022-10-29T14:01:53;94833.69;;;26.05;44.59
71194;BME280;58903;47.210;8.618;2022-10-29T14:04:34;94834.44;;;26.05;44.32
71194;BME280;58903;47.210;8.618;2022-10-29T14:07:29;94826.44;;;26.07;44.72
71194;BME280;58903;47.210;8.618;2022-10-29T14:10:05;94822.44;;;26.08;44.95
71194;BME280;58903;47.210;8.618;2022-10-29T14:12:34;94830.69;;;26.08;44.72
71194;BME280;58903;47.210;8.618;2022-10-29T14:15:14;94830.69;;;26.08;44.60
71194;BME280;58903;47.210;8.618;2022-10-29T14:17:41;94833.69;;;26.10;44.34
71194;BME280;58903;47.210;8.618;2022-10-29T14:20:25;94832.47;;;26.11;44.89
71194;BME280;58903;47.210;8.618;2022-10-29T14:22:52;94833.22;;;26.12;44.18
71194;BME280;58903;47.210;8.618;2022-10-29T14:30:52;94841.22;;;26.15;45.39
71194;BME280;58903;47.210;8.618;2022-10-29T14:33:26;94834.19;;;26.14;45.08
71194;BME280;58903;47.210;8.618;2022-10-29T14:36:00;94843.97;;;26.15;45.49
71194;BME280;58903;47.210;8.618;2022-10-29T14:38:38;94839.69;;;26.14;45.80
71194;BME280;58903;47.210;8.618;2022-10-29T14:41:07;94836.47;;;26.16;45.33
71194;BME280;58903;47.210;8.618;2022-10-29T14:43:37;94838.72;;;26.17;45.60
71194;BME280;58903;47.210;8.618;2022-10-29T14:46:21;94838.19;;;26.19;44.91
71194;BME280;58903;47.210;8.618;2022-10-29T14:52:05;94828.44;;;26.18;45.72
71194;BME280;58903;47.210;8.618;2022-10-29T14:54:37;94827.44;;;26.15;45.39
71194;BME280;58903;47.210;8.618;2022-10-29T14:57:15;94833.19;;;26.17;45.20
71194;BME280;58903;47.210;8.618;2022-10-29T14:59:50;94830.44;;;26.17;45.54
71194;BME280;58903;47.210;8.618;2022-10-29T15:02:37;94839.47;;;26.18;45.74
71194;BME280;58903;47.210;8.618;2022-10-29T15:07:47;94825.44;;;26.16;45.90
71194;BME280;58903;47.210;8.618;2022-10-29T15:10:21;94824.69;;;26.15;46.40
71194;BME280;58903;47.210;8.618;2022-10-29T15:12:50;94829.94;;;26.13;46.44
71194;BME280;58903;47.210;8.618;2022-10-29T15:15:25;94830.47;;;26.12;45.93
71194;BME280;58903;47.210;8.618;2022-10-29T15:22:56;94832.69;;;26.13;45.99
71194;BME280;58903;47.210;8.618;2022-10-29T15:25:44;94832.69;;;26.13;45.69
71194;BME280;58903;47.210;8.618;2022-10-29T15:28:19;94831.19;;;26.12;45.56
71194;BME280;58903;47.210;8.618;2022-10-29T15:30:46;94818.69;;;26.11;47.06
71194;BME280;58903;47.210;8.618;2022-10-29T15:33:17;94824.19;;;26.11;46.33
71194;BME280;58903;47.210;8.618;2022-10-29T15:35:51;94819.91;;;26.10;46.23
71194;BME280;58903;47.210;8.618;2022-10-29T15:41:32;94820.41;;;26.14;46.19
71194;BME280;58903;47.210;8.618;2022-10-29T15:43:59;94823.41;;;26.16;46.57
71194;BME280;58903;47.210;8.618;2022-10-29T15:46:51;94826.69;;;26.21;46.47
71194;BME280;58903;47.210;8.618;2022-10-29T15:49:22;94827.94;;;26.20;46.43
71194;BME280;58903;47.210;8.618;2022-10-29T15:51:59;94830.16;;;26.21;46.39
71194;BME280;58903;47.210;8.618;2022-10-29T15:54:43;94826.16;;;26.22;46.74
71194;BME280;58903;47.210;8.618;2022-10-29T15:57:13;94825.41;;;26.22;46.16
71194;BME280;58903;47.210;8.618;2022-10-29T15:59:42;94825.16;;;26.20;46.71
71194;BME280;58903;47.210;8.618;2022-10-29T16:02:18;94832.69;;;26.19;46.31
71194;BME280;58903;47.210;8.618;2022-10-29T16:04:46;94825.44;;;26.16;46.54
71194;BME280;58903;47.210;8.618;2022-10-29T16:07:15;94827.44;;;26.15;46.18
71194;BME280;58903;47.210;8.618;2022-10-29T16:09:55;94824.69;;;26.15;46.38
71194;BME280;58903;47.210;8.618;2022-10-29T16:12:34;94831.44;;;26.14;46.56
71194;BME280;58903;47.210;8.618;2022-10-29T16:15:27;94826.44;;;26.13;46.31
71194;BME280;58903;47.210;8.618;2022-10-29T16:18:04;94831.19;;;26.12;46.36
71194;BME280;58903;47.210;8.618;2022-10-29T16:20:39;94830.47;;;26.12;47.36
71194;BME280;58903;47.210;8.618;2022-10-29T16:23:17;94820.16;;;26.12;46.79
71194;BME280;58903;47.210;8.618;2022-10-29T16:25:43;94817.91;;;26.11;46.36
71194;BME280;58903;47.210;8.618;2022-10-29T16:28:10;94811.66;;;26.10;46.95
71194;BME280;58903;47.210;8.618;2022-10-29T16:30:36;94821.44;;;26.11;46.94
71194;BME280;58903;47.210;8.618;2022-10-29T16:33:03;94816.69;;;26.12;46.42
71194;BME280;58903;47.210;8.618;2022-10-29T16:35:29;94810.16;;;26.09;46.57
71194;BME280;58903;47.210;8.618;2022-10-29T16:38:00;94809.88;;;26.07;46.96
71194;BME280;58903;47.210;8.618;2022-10-29T16:40:27;94816.13;;;26.08;46.72
71194;BME280;58903;47.210;8.618;2022-10-29T16:42:55;94812.66;;;26.07;47.16
71194;BME280;58903;47.210;8.618;2022-10-29T16:45:27;94819.66;;;26.08;47.18
71194;BME280;58903;47.210;8.618;2022-10-29T16:48:00;94830.19;;;26.04;47.43
71194;BME280;58903;47.210;8.618;2022-10-29T16:50:31;94822.91;;;26.01;47.40
71194;BME280;58903;47.210;8.618;2022-10-29T16:53:12;94825.41;;;25.99;47.25
71194;BME280;58903;47.210;8.618;2022-10-29T16:55:56;94822.41;;;25.97;46.69
71194;BME280;58903;47.210;8.618;2022-10-29T16:58:44;94818.66;;;25.95;47.58
71194;BME280;58903;47.210;8.618;2022-10-29T17:01:22;94815.16;;;25.94;47.57